Time;durP1;ratioP1;P1;durP2;ratioP2;P2;SDS_P1;SDS_P2;PMS_P1;PMS_P2;Temp;Humidity;BMP_temperature;BMP_pressure;BME280_temperature;BME280_humidity;BME280_pressure;Samples;Min_cycle;Max_cycle;Signal;HPM_P1;HPM_P2
2023/10/15 00:01:32;;;;;;;3.08;1.40;;;;;;;;;;5047178;28;20028;-77
2023/10/15 00:03:58;;;;;;;4.57;1.30;;;;;;;;;;5061195;28;20017;-77
2023/10/15 00:06:24;;;;;;;3.33;1.38;;;;;;;;;;5060740;28;20032;-77
2023/10/15 00:08:50;;;;;;;2.15;1.40;;;;;;;;;;5061420;28;20033;-77
2023/10/15 00:11:21;;;;;;;4.68;1.48;;;;;;;;;;5052449;28;20089;-77
2023/10/15 00:13:47;;;;;;;6.60;1.95;;;;;;;;;;5035662;28;20526;-77
2023/10/15 00:16:21;;;;;;;3.95;1.52;;;;;;;;;;5037073;28;20427;-77
2023/10/15 00:18:47;;;;;;;2.40;1.45;;;;;;;;;;5040913;28;20017;-77
2023/10/15 00:21:13;;;;;;;3.85;1.60;;;;;;;;;;5037990;28;20086;-77
2023/10/15 00:23:43;;;;;;;7.20;1.63;;;;;;;;;;5059386;28;20025;-77
2023/10/15 00:26:12;;;;;;;4.07;1.40;;;;;;;;;;5060294;28;20017;-76
2023/10/15 00:28:45;;;;;;;4.25;1.30;;;;;;;;;;5055276;28;20061;-77
2023/10/15 00:31:14;;;;;;;;;;;;;;;;;;5052918;28;20091;-77
2023/10/15 00:33:46;;;;;;;3.55;1.13;;;;;;;;;;5040698;28;19995;-76
2023/10/15 00:36:15;;;;;;;2.85;1.30;;;;;;;;;;5036733;28;20026;-77
2023/10/15 00:38:43;;;;;;;5.05;1.50;;;;;;;;;;5035822;28;20499;-77
2023/10/15 00:41:10;;;;;;;6.32;1.85;;;;;;;;;;5036432;28;20021;-77
2023/10/15 00:43:36;;;;;;;1.98;1.48;;;;;;;;;;5055773;28;20094;-78
2023/10/15 00:46:08;;;;;;;2.50;1.13;;;;;;;;;;5049901;28;20060;-77
2023/10/15 00:48:35;;;;;;;5.53;1.75;;;;;;;;;;5043544;28;20081;-77
2023/10/15 00:51:08;;;;;;;3.15;1.27;;;;;;;;;;5046331;28;20068;-77
2023/10/15 00:53:34;;;;;;;5.78;1.83;;;;;;;;;;5061919;28;20033;-77
2023/10/15 00:56:03;;;;;;;6.80;1.63;;;;;;;;;;5064486;28;20028;-77
2023/10/15 00:58:39;;;;;;;4.75;1.55;;;;;;;;;;5063513;28;20025;-76
2023/10/15 01:03:54;;;;;;;3.22;1.10;;;;;;;;;;5056348;28;20093;-77
2023/10/15 01:08:53;;;;;;;2.30;1.25;;;;;;;;;;5046875;28;20460;-77
2023/10/15 01:11:19;;;;;;;2.25;0.80;;;;;;;;;;5045645;28;20029;-77
2023/10/15 01:13:45;;;;;;;3.28;1.40;;;;;;;;;;5041413;28;20030;-76
2023/10/15 01:16:13;;;;;;;2.67;1.45;;;;;;;;;;5042626;28;20025;-77
2023/10/15 01:18:40;;;;;;;3.55;1.58;;;;;;;;;;5042778;28;20056;-77
2023/10/15 01:21:09;;;;;;;5.03;1.52;;;;;;;;;;5042170;28;20025;-77
2023/10/15 01:26:09;;;;;;;5.38;1.45;;;;;;;;;;5066795;28;20033;-77
2023/10/15 01:28:39;;;;;;;6.88;1.25;;;;;;;;;;5065067;28;20055;-77
2023/10/15 01:31:06;;;;;;;4.47;1.40;;;;;;;;;;5061537;28;20028;-76
2023/10/15 01:33:45;;;;;;;4.03;1.00;;;;;;;;;;5049576;28;20033;-77
2023/10/15 01:36:16;;;;;;;5.25;1.50;;;;;;;;;;5045307;28;20514;-77
2023/10/15 01:38:44;;;;;;;3.85;1.25;;;;;;;;;;5041619;28;20116;-77
2023/10/15 01:41:13;;;;;;;3.30;1.35;;;;;;;;;;5041923;28;20029;-77
2023/10/15 01:43:40;;;;;;;4.63;1.35;;;;;;;;;;5046137;28;20018;-77
2023/10/15 01:46:12;;;;;;;1.42;0.95;;;;;;;;;;5054736;28;20051;-78
2023/10/15 01:48:40;;;;;;;7.00;1.10;;;;;;;;;;5064266;28;20025;-78
2023/10/15 01:51:07;;;;;;;1.38;0.98;;;;;;;;;;5068464;28;20033;-77
2023/10/15 01:53:34;;;;;;;2.78;1.15;;;;;;;;;;5062799;28;20025;-77
2023/10/15 01:56:04;;;;;;;1.92;0.95;;;;;;;;;;5052820;28;20021;-76
2023/10/15 01:58:31;;;;;;;2.78;1.02;;;;;;;;;;5044839;28;20022;-77
2023/10/15 02:01:20;;;;;;;2.65;1.20;;;;;;;;;;5048522;28;20029;-77
2023/10/15 02:03:47;;;;;;;3.47;1.35;;;;;;;;;;5060414;28;20434;-77
2023/10/15 02:06:16;;;;;;;4.47;1.20;;;;;;;;;;5071127;28;20040;-77
2023/10/15 02:08:45;;;;;;;2.42;1.15;;;;;;;;;;5072441;28;20032;-77
2023/10/15 02:11:16;;;;;;;5.38;2.22;;;;;;;;;;5068027;28;20075;-77
2023/10/15 02:13:45;;;;;;;1.67;0.82;;;;;;;;;;5069082;28;20036;-77
2023/10/15 02:16:16;;;;;;;3.95;1.17;;;;;;;;;;5068095;28;20112;-76
2023/10/15 02:18:45;;;;;;;3.17;1.30;;;;;;;;;;5071693;28;20089;-77
2023/10/15 02:21:16;;;;;;;2.78;1.17;;;;;;;;;;5071188;28;20025;-76
2023/10/15 02:23:49;;;;;;;6.05;1.38;;;;;;;;;;5064297;28;20487;-77
2023/10/15 02:26:18;;;;;;;2.15;0.98;;;;;;;;;;5066733;28;20021;-78
2023/10/15 02:28:47;;;;;;;4.78;0.93;;;;;;;;;;5066257;28;20044;-77
2023/10/15 02:31:22;;;;;;;2.65;0.90;;;;;;;;;;5065306;28;20495;-79
2023/10/15 02:33:49;;;;;;;1.58;0.98;;;;;;;;;;5053000;28;20028;-78
2023/10/15 02:36:16;;;;;;;2.92;0.90;;;;;;;;;;5051098;28;20021;-78
2023/10/15 02:38:55;;;;;;;2.65;1.15;;;;;;;;;;5058570;28;20048;-75
2023/10/15 02:41:31;;;;;;;2.92;0.60;;;;;;;;;;5057988;28;20100;-76
2023/10/15 02:43:57;;;;;;;1.90;0.75;;;;;;;;;;5066780;28;20020;-77
2023/10/15 02:48:59;;;;;;;2.40;1.02;;;;;;;;;;5059654;28;20033;-78
2023/10/15 02:51:26;;;;;;;1.77;0.70;;;;;;;;;;5066505;28;20086;-77
2023/10/15 02:53:52;;;;;;;3.10;0.93;;;;;;;;;;5066790;28;20024;-75
2023/10/15 02:56:20;;;;;;;1.75;0.70;;;;;;;;;;5065463;28;20047;-77
2023/10/15 02:58:46;;;;;;;3.03;1.00;;;;;;;;;;5048249;28;20028;-76
2023/10/15 03:01:17;;;;;;;0.50;0.50;;;;;;;;;;5044696;28;20025;-77
2023/10/15 03:03:48;;;;;;;1.65;0.60;;;;;;;;;;5045097;28;20396;-77
2023/10/15 03:06:18;;;;;;;2.65;1.00;;;;;;;;;;5046852;28;20029;-76
2023/10/15 03:08:45;;;;;;;2.80;0.80;;;;;;;;;;5043342;28;20079;-78
2023/10/15 03:11:12;;;;;;;3.13;0.95;;;;;;;;;;5047250;28;20025;-77
2023/10/15 03:14:00;;;;;;;1.88;0.77;;;;;;;;;;5046456;28;20033;-77
2023/10/15 03:16:30;;;;;;;0.82;0.63;;;;;;;;;;5053338;28;20025;-76
2023/10/15 03:18:56;;;;;;;1.25;0.57;;;;;;;;;;5065078;28;20020;-77
2023/10/15 03:21:26;;;;;;;1.75;0.63;;;;;;;;;;5068692;28;20021;-76
2023/10/15 03:23:55;;;;;;;2.20;0.90;;;;;;;;;;5060186;28;20399;-77
2023/10/15 03:26:22;;;;;;;2.08;0.88;;;;;;;;;;5065889;28;20032;-77
2023/10/15 03:28:51;;;;;;;1.83;0.82;;;;;;;;;;5067709;28;20044;-77
2023/10/15 03:31:25;;;;;;;1.63;0.65;;;;;;;;;;5059251;28;20029;-77
2023/10/15 03:36:27;;;;;;;1.58;0.90;;;;;;;;;;5064332;28;20060;-76
2023/10/15 03:38:54;;;;;;;2.33;1.08;;;;;;;;;;5063500;28;20032;-77
2023/10/15 03:41:27;;;;;;;1.58;0.80;;;;;;;;;;5066975;28;20117;-77
2023/10/15 03:43:56;;;;;;;3.50;0.90;;;;;;;;;;5067586;28;20059;-78
2023/10/15 03:46:25;;;;;;;2.05;0.93;;;;;;;;;;5065553;28;20032;-78
2023/10/15 03:48:53;;;;;;;4.30;1.42;;;;;;;;;;5070356;28;20144;-75
2023/10/15 03:51:23;;;;;;;4.25;1.08;;;;;;;;;;5073135;28;20024;-76
2023/10/15 03:53:49;;;;;;;1.27;0.80;;;;;;;;;;5072774;28;20021;-75
2023/10/15 03:56:27;;;;;;;1.55;0.80;;;;;;;;;;5070132;28;20051;-76
2023/10/15 03:58:53;;;;;;;3.85;1.10;;;;;;;;;;5070204;28;20386;-76
2023/10/15 04:01:20;;;;;;;3.33;0.60;;;;;;;;;;5067112;28;20123;-77
2023/10/15 04:03:48;;;;;;;2.58;0.80;;;;;;;;;;5065993;28;20029;-75
2023/10/15 04:06:16;;;;;;;2.15;0.88;;;;;;;;;;5066641;28;20033;-76
2023/10/15 04:11:52;;;;;;;2.08;0.77;;;;;;;;;;5066280;28;20044;-77
2023/10/15 04:14:22;;;;;;;3.15;1.13;;;;;;;;;;5064807;28;20032;-76
2023/10/15 04:16:50;;;;;;;4.10;1.15;;;;;;;;;;5064123;28;20383;-77
2023/10/15 04:19:19;;;;;;;2.33;1.00;;;;;;;;;;5063493;28;20103;-77
2023/10/15 04:21:45;;;;;;;4.38;1.10;;;;;;;;;;5060623;28;20029;-76
2023/10/15 04:24:14;;;;;;;3.17;1.15;;;;;;;;;;5063941;28;20025;-77
2023/10/15 04:26:42;;;;;;;5.20;1.08;;;;;;;;;;5065400;28;20021;-78
2023/10/15 04:29:18;;;;;;;1.75;1.00;;;;;;;;;;5066627;28;20045;-77
2023/10/15 04:31:51;;;;;;;2.85;0.90;;;;;;;;;;5065564;28;20098;-78
2023/10/15 04:34:18;;;;;;;;;;;;;;;;;;5069799;28;20017;-77
2023/10/15 04:36:44;;;;;;;1.38;0.70;;;;;;;;;;5062979;28;19920;-77
2023/10/15 04:39:15;;;;;;;1.38;0.85;;;;;;;;;;5058736;28;20032;-77
2023/10/15 04:41:41;;;;;;;2.55;0.95;;;;;;;;;;5042824;28;20030;-78
2023/10/15 04:44:13;;;;;;;2.40;0.88;;;;;;;;;;5040452;28;20022;-76
2023/10/15 04:46:42;;;;;;;2.22;0.70;;;;;;;;;;5056401;28;20036;-76
2023/10/15 04:49:09;;;;;;;0.55;0.50;;;;;;;;;;5053220;28;20057;-77
2023/10/15 04:51:53;;;;;;;4.13;1.08;;;;;;;;;;5065918;28;20040;-77
2023/10/15 04:54:19;;;;;;;0.88;0.50;;;;;;;;;;5064467;28;20055;-77
2023/10/15 04:56:46;;;;;;;1.13;0.43;;;;;;;;;;5065613;28;20021;-77
2023/10/15 04:59:12;;;;;;;2.58;0.68;;;;;;;;;;5067151;28;20021;-79
2023/10/15 05:01:38;;;;;;;1.15;0.55;;;;;;;;;;5066665;28;20029;-77
2023/10/15 05:04:06;;;;;;;1.13;0.60;;;;;;;;;;5049784;28;20022;-78
2023/10/15 05:06:33;;;;;;;1.70;1.10;;;;;;;;;;5068819;28;20039;-77
2023/10/15 05:08:59;;;;;;;6.25;1.73;;;;;;;;;;5067447;28;20028;-78
2023/10/15 05:11:25;;;;;;;7.28;1.42;;;;;;;;;;5068185;28;20083;-77
2023/10/15 05:13:52;;;;;;;2.47;1.02;;;;;;;;;;5067997;28;20021;-76
2023/10/15 05:16:19;;;;;;;5.07;1.48;;;;;;;;;;5075622;28;20017;-76
2023/10/15 05:18:47;;;;;;;5.10;1.30;;;;;;;;;;5067904;28;20037;-76
2023/10/15 05:21:13;;;;;;;3.50;0.95;;;;;;;;;;5044435;28;20029;-77
2023/10/15 05:23:40;;;;;;;2.90;0.98;;;;;;;;;;5050400;28;20030;-77
2023/10/15 05:26:06;;;;;;;4.75;1.35;;;;;;;;;;5053260;28;20093;-78
2023/10/15 05:28:32;;;;;;;1.77;1.00;;;;;;;;;;5055957;28;20013;-76
2023/10/15 05:30:58;;;;;;;1.90;0.80;;;;;;;;;;5068448;28;20054;-77
2023/10/15 05:33:24;;;;;;;2.13;0.73;;;;;;;;;;5055953;28;20280;-75
2023/10/15 05:35:51;;;;;;;3.40;0.90;;;;;;;;;;5049618;28;20116;-79
2023/10/15 05:38:17;;;;;;;3.50;0.63;;;;;;;;;;5044058;28;20045;-79
2023/10/15 05:40:44;;;;;;;2.05;0.88;;;;;;;;;;5054866;28;20025;-76
2023/10/15 05:43:10;;;;;;;3.25;0.80;;;;;;;;;;5062759;28;20014;-79
2023/10/15 05:45:37;;;;;;;1.85;0.88;;;;;;;;;;5064143;28;20021;-77
2023/10/15 05:48:03;;;;;;;1.98;0.70;;;;;;;;;;5065959;28;20079;-76
2023/10/15 05:50:29;;;;;;;1.90;0.70;;;;;;;;;;5060084;28;20021;-76
2023/10/15 05:52:55;;;;;;;2.40;0.85;;;;;;;;;;5047217;28;20025;-77
2023/10/15 05:55:21;;;;;;;2.17;0.77;;;;;;;;;;5049297;28;20040;-78
2023/10/15 05:57:48;;;;;;;3.38;0.95;;;;;;;;;;5058293;28;20494;-77
2023/10/15 06:00:26;;;;;;;1.73;0.85;;;;;;;;;;5070874;28;20025;-79
2023/10/15 06:02:53;;;;;;;1.42;0.70;;;;;;;;;;5068624;28;20028;-77
2023/10/15 06:05:20;;;;;;;3.88;1.30;;;;;;;;;;5065884;28;20017;-77
2023/10/15 06:07:48;;;;;;;2.58;0.80;;;;;;;;;;5062252;28;20036;-78
2023/10/15 06:10:15;;;;;;;6.30;0.95;;;;;;;;;;5048895;28;20022;-77
2023/10/15 06:12:42;;;;;;;2.90;0.75;;;;;;;;;;5047824;28;20089;-75
2023/10/15 06:15:09;;;;;;;3.90;1.50;;;;;;;;;;5045701;28;20030;-77
2023/10/15 06:17:36;;;;;;;3.53;0.93;;;;;;;;;;5047804;28;20034;-77
2023/10/15 06:20:12;;;;;;;2.35;0.80;;;;;;;;;;5047991;28;20026;-77
2023/10/15 06:22:39;;;;;;;2.05;0.60;;;;;;;;;;5054171;28;20026;-78
2023/10/15 06:25:05;;;;;;;2.58;1.08;;;;;;;;;;5047237;28;20433;-77
2023/10/15 06:27:35;;;;;;;2.35;0.50;;;;;;;;;;5047790;28;20025;-77
2023/10/15 06:30:04;;;;;;;2.30;0.68;;;;;;;;;;5067271;28;20033;-76
2023/10/15 06:32:31;;;;;;;1.75;0.82;;;;;;;;;;5068894;28;20088;-76
2023/10/15 06:34:57;;;;;;;3.92;1.00;;;;;;;;;;5067852;28;20114;-78
2023/10/15 06:37:23;;;;;;;2.53;0.95;;;;;;;;;;5062606;28;20036;-78
2023/10/15 06:39:49;;;;;;;4.03;1.08;;;;;;;;;;5062715;28;20017;-78
2023/10/15 06:42:15;;;;;;;2.20;0.82;;;;;;;;;;5063237;28;20568;-78
2023/10/15 06:44:41;;;;;;;2.50;0.80;;;;;;;;;;5062420;28;20017;-78
2023/10/15 06:47:10;;;;;;;3.42;0.95;;;;;;;;;;5060070;28;20028;-78
2023/10/15 06:49:36;;;;;;;2.38;0.80;;;;;;;;;;5049159;28;20029;-77
2023/10/15 06:52:03;;;;;;;1.95;0.82;;;;;;;;;;5048343;28;20026;-77
2023/10/15 06:54:29;;;;;;;1.88;0.90;;;;;;;;;;5049377;28;20021;-78
2023/10/15 06:56:55;;;;;;;1.75;0.40;;;;;;;;;;5040890;28;20550;-78
2023/10/15 06:59:22;;;;;;;3.08;0.88;;;;;;;;;;5039822;28;20037;-79
2023/10/15 07:01:48;;;;;;;1.50;0.80;;;;;;;;;;5044269;28;20109;-76
2023/10/15 07:04:14;;;;;;;0.90;0.60;;;;;;;;;;5050113;28;20028;-77
2023/10/15 07:06:40;;;;;;;1.45;0.65;;;;;;;;;;5045722;28;20087;-79
2023/10/15 07:09:07;;;;;;;3.83;0.60;;;;;;;;;;5044495;28;20018;-79
2023/10/15 07:11:35;;;;;;;3.55;0.70;;;;;;;;;;5056151;28;20029;-78
2023/10/15 07:14:02;;;;;;;2.85;0.80;;;;;;;;;;5041125;28;20025;-76
2023/10/15 07:16:28;;;;;;;2.38;1.08;;;;;;;;;;5041058;28;20051;-79
2023/10/15 07:18:54;;;;;;;2.25;0.70;;;;;;;;;;5040509;28;20021;-78
2023/10/15 07:21:20;;;;;;;1.08;0.65;;;;;;;;;;5053516;28;20032;-78
2023/10/15 07:23:51;;;;;;;2.78;0.93;;;;;;;;;;5059175;28;20032;-78
2023/10/15 07:26:17;;;;;;;0.95;0.52;;;;;;;;;;5057832;28;20063;-78
2023/10/15 07:28:43;;;;;;;2.72;0.95;;;;;;;;;;5059092;28;20479;-78
2023/10/15 07:31:09;;;;;;;5.22;1.38;;;;;;;;;;5046666;28;20033;-78
2023/10/15 07:33:35;;;;;;;2.10;0.80;;;;;;;;;;5051696;28;20040;-78
2023/10/15 07:36:02;;;;;;;3.63;1.30;;;;;;;;;;5067120;28;20533;-78
2023/10/15 07:38:28;;;;;;;1.27;0.73;;;;;;;;;;5061050;28;20020;-78
2023/10/15 07:40:57;;;;;;;3.50;1.00;;;;;;;;;;5053275;28;20060;-77
2023/10/15 07:43:23;;;;;;;2.60;1.33;;;;;;;;;;5043455;28;20032;-78
2023/10/15 07:45:49;;;;;;;1.83;1.35;;;;;;;;;;5042178;28;20022;-77
2023/10/15 07:48:15;;;;;;;2.97;1.27;;;;;;;;;;5042392;28;20021;-78
2023/10/15 07:50:45;;;;;;;2.78;1.00;;;;;;;;;;5043887;28;20023;-78
2023/10/15 07:53:12;;;;;;;1.90;0.80;;;;;;;;;;5062519;28;20028;-76
2023/10/15 07:55:38;;;;;;;0.80;0.60;;;;;;;;;;5062970;28;20103;-78
2023/10/15 07:58:04;;;;;;;4.15;1.02;;;;;;;;;;5061660;28;20025;-78
2023/10/15 08:00:30;;;;;;;2.08;0.85;;;;;;;;;;5062586;28;20171;-79
2023/10/15 08:03:00;;;;;;;3.05;1.05;;;;;;;;;;5045359;28;20037;-78
2023/10/15 08:05:27;;;;;;;2.33;0.68;;;;;;;;;;5043786;28;20021;-79
2023/10/15 08:07:53;;;;;;;1.90;0.70;;;;;;;;;;5041456;28;20034;-78
2023/10/15 08:10:21;;;;;;;3.40;1.05;;;;;;;;;;5039195;28;20133;-77
2023/10/15 08:12:49;;;;;;;1.38;0.68;;;;;;;;;;5052419;28;20034;-78
2023/10/15 08:15:15;;;;;;;1.17;0.63;;;;;;;;;;5060020;28;20075;-77
2023/10/15 08:17:41;;;;;;;1.42;0.65;;;;;;;;;;5060196;28;20107;-78
2023/10/15 08:20:09;;;;;;;0.95;0.60;;;;;;;;;;5060413;28;20021;-77
2023/10/15 08:22:40;;;;;;;4.50;1.20;;;;;;;;;;5050311;28;20025;-78
2023/10/15 08:25:21;;;;;;;3.20;1.08;;;;;;;;;;5040287;28;20067;-78
2023/10/15 08:27:47;;;;;;;2.67;0.77;;;;;;;;;;5040004;28;20021;-78
2023/10/15 08:30:14;;;;;;;2.08;0.98;;;;;;;;;;5040513;28;20021;-77
2023/10/15 08:32:41;;;;;;;0.90;0.70;;;;;;;;;;5040315;28;20029;-80
2023/10/15 08:35:13;;;;;;;1.95;0.70;;;;;;;;;;5041735;28;20032;-78
2023/10/15 08:37:39;;;;;;;;;;;;;;;;;;5040948;28;20112;-78
2023/10/15 08:40:06;;;;;;;2.35;0.77;;;;;;;;;;5041764;28;19992;-79
2023/10/15 08:42:43;;;;;;;4.10;1.42;;;;;;;;;;5047748;28;20033;-76
2023/10/15 08:45:09;;;;;;;1.67;1.00;;;;;;;;;;5049889;28;20037;-77
2023/10/15 08:47:36;;;;;;;1.38;0.65;;;;;;;;;;5051841;28;20045;-77
2023/10/15 08:50:02;;;;;;;4.20;1.30;;;;;;;;;;5048096;28;20029;-75
2023/10/15 08:52:31;;;;;;;3.17;1.00;;;;;;;;;;5056305;28;20025;-75
2023/10/15 08:55:01;;;;;;;5.05;1.38;;;;;;;;;;5058799;28;20051;-76
2023/10/15 08:57:29;;;;;;;13.32;1.60;;;;;;;;;;5069148;28;20032;-78
2023/10/15 08:59:57;;;;;;;6.80;0.85;;;;;;;;;;5063327;28;20024;-77
2023/10/15 09:02:24;;;;;;;1.42;0.63;;;;;;;;;;5061412;28;20535;-77
2023/10/15 09:04:52;;;;;;;3.38;0.75;;;;;;;;;;5044398;28;20027;-78
2023/10/15 09:07:19;;;;;;;1.08;0.60;;;;;;;;;;5040632;28;20048;-78
2023/10/15 09:09:45;;;;;;;0.20;0.20;;;;;;;;;;5036538;28;20104;-77
2023/10/15 09:12:14;;;;;;;1.65;0.50;;;;;;;;;;5036031;28;20029;-77
2023/10/15 09:14:44;;;;;;;2.03;0.40;;;;;;;;;;5050482;28;20028;-78
2023/10/15 09:17:17;;;;;;;1.48;0.63;;;;;;;;;;5058934;28;20029;-77
2023/10/15 09:19:44;;;;;;;1.75;0.55;;;;;;;;;;5057974;28;20506;-79
2023/10/15 09:22:17;;;;;;;0.60;0.60;;;;;;;;;;5057782;28;20021;-77
2023/10/15 09:24:46;;;;;;;3.95;0.88;;;;;;;;;;5049050;28;20079;-77
2023/10/15 09:27:13;;;;;;;2.50;1.00;;;;;;;;;;5040628;28;20547;-76
2023/10/15 09:29:40;;;;;;;2.97;1.17;;;;;;;;;;5040581;28;20386;-77
2023/10/15 09:32:07;;;;;;;1.27;0.90;;;;;;;;;;5039247;28;20026;-77
2023/10/15 09:34:37;;;;;;;3.58;1.10;;;;;;;;;;5045612;28;20032;-77
2023/10/15 09:37:05;;;;;;;1.63;1.15;;;;;;;;;;5061180;28;20466;-77
2023/10/15 09:39:31;;;;;;;1.63;0.95;;;;;;;;;;5058711;28;20047;-77
2023/10/15 09:42:02;;;;;;;3.20;1.05;;;;;;;;;;5058430;28;20029;-78
2023/10/15 09:44:28;;;;;;;0.65;0.65;;;;;;;;;;5056709;28;20075;-77
2023/10/15 09:46:54;;;;;;;1.60;0.90;;;;;;;;;;5051597;28;20090;-78
2023/10/15 09:49:22;;;;;;;5.53;1.73;;;;;;;;;;5039642;28;20025;-77
2023/10/15 09:51:48;;;;;;;1.73;0.85;;;;;;;;;;5038635;28;20083;-78
2023/10/15 09:54:19;;;;;;;1.90;0.80;;;;;;;;;;5038390;28;20041;-78
2023/10/15 09:56:46;;;;;;;1.10;0.90;;;;;;;;;;5047074;28;20026;-75
2023/10/15 09:59:14;;;;;;;2.28;1.13;;;;;;;;;;5052749;28;20035;-77
2023/10/15 10:01:44;;;;;;;2.70;1.08;;;;;;;;;;5051567;28;20526;-78
2023/10/15 10:04:40;;;;;;;0.98;0.90;;;;;;;;;;5060139;28;20033;-76
2023/10/15 10:07:14;;;;;;;2.13;1.13;;;;;;;;;;5054008;28;20022;-77
2023/10/15 10:09:59;;;;;;;2.35;1.13;;;;;;;;;;5076011;22;20056;-76
2023/10/15 10:12:51;;;;;;;0.90;0.65;;;;;;;;;;5058577;28;20033;-75
2023/10/15 10:15:23;;;;;;;1.13;0.80;;;;;;;;;;5055858;28;20559;-75
2023/10/15 10:17:53;;;;;;;2.28;1.10;;;;;;;;;;5058574;28;20403;-75
2023/10/15 10:20:22;;;;;;;3.22;1.08;;;;;;;;;;5057672;28;20028;-76
2023/10/15 10:22:59;;;;;;;2.00;0.93;;;;;;;;;;5056871;28;20017;-76
2023/10/15 10:25:30;;;;;;;1.58;0.82;;;;;;;;;;5056160;28;20095;-76
2023/10/15 10:28:06;;;;;;;1.05;0.73;;;;;;;;;;5055491;28;20458;-76
2023/10/15 10:30:32;;;;;;;4.35;1.10;;;;;;;;;;5056880;28;20100;-76
2023/10/15 10:32:59;;;;;;;1.02;0.88;;;;;;;;;;5056421;28;20040;-77
2023/10/15 10:35:27;;;;;;;4.43;0.95;;;;;;;;;;5056412;28;20017;-76
2023/10/15 10:38:06;;;;;;;3.38;1.00;;;;;;;;;;5056645;28;20045;-75
2023/10/15 10:40:50;;;;;;;4.75;0.90;;;;;;;;;;5055888;28;20025;-76
2023/10/15 10:43:21;;;;;;;2.88;0.90;;;;;;;;;;5055552;28;20479;-76
2023/10/15 10:46:00;;;;;;;1.25;0.80;;;;;;;;;;5056666;28;20445;-76
2023/10/15 10:48:27;;;;;;;2.15;0.70;;;;;;;;;;5059259;28;20025;-75
2023/10/15 10:51:08;;;;;;;1.35;0.90;;;;;;;;;;5066780;28;20025;-75
2023/10/15 10:53:53;;;;;;;1.80;0.88;;;;;;;;;;5065914;28;20029;-76
2023/10/15 10:56:19;;;;;;;1.40;0.80;;;;;;;;;;5054899;28;20025;-76
2023/10/15 10:58:45;;;;;;;1.77;0.75;;;;;;;;;;5053498;28;20028;-77
2023/10/15 11:01:13;;;;;;;3.85;0.90;;;;;;;;;;5054484;28;20024;-77
2023/10/15 11:03:40;;;;;;;1.58;0.75;;;;;;;;;;5055035;28;20102;-76
2023/10/15 11:06:07;;;;;;;2.90;0.85;;;;;;;;;;5061194;28;20021;-75
2023/10/15 11:08:33;;;;;;;2.25;0.80;;;;;;;;;;5062027;28;20024;-76
2023/10/15 11:10:59;;;;;;;4.07;1.15;;;;;;;;;;5058855;28;20036;-75
2023/10/15 11:13:26;;;;;;;2.45;1.10;;;;;;;;;;5059713;28;20391;-77
2023/10/15 11:15:52;;;;;;;0.70;0.60;;;;;;;;;;5058730;28;20103;-75
2023/10/15 11:18:26;;;;;;;2.25;0.95;;;;;;;;;;5059203;28;20435;-76
2023/10/15 11:20:52;;;;;;;3.60;1.40;;;;;;;;;;5060768;28;20036;-75
2023/10/15 11:23:26;;;;;;;2.90;0.90;;;;;;;;;;5062144;28;20031;-75
2023/10/15 11:25:54;;;;;;;2.95;1.10;;;;;;;;;;5073093;28;20036;-76
2023/10/15 11:28:20;;;;;;;4.82;1.38;;;;;;;;;;5071588;28;20055;-75
2023/10/15 11:30:46;;;;;;;2.80;0.93;;;;;;;;;;5072427;28;20430;-75
2023/10/15 11:33:16;;;;;;;4.07;1.00;;;;;;;;;;5072619;28;20021;-76
2023/10/15 11:35:43;;;;;;;1.77;0.93;;;;;;;;;;5071526;28;20024;-76
2023/10/15 11:38:10;;;;;;;4.78;1.40;;;;;;;;;;5067011;28;20032;-76
2023/10/15 11:40:39;;;;;;;2.45;1.10;;;;;;;;;;5067291;28;20025;-76
2023/10/15 11:43:21;;;;;;;6.05;1.13;;;;;;;;;;5063293;28;20021;-75
2023/10/15 11:45:47;;;;;;;2.60;0.65;;;;;;;;;;5064767;28;20045;-75
2023/10/15 11:48:14;;;;;;;1.95;0.70;;;;;;;;;;5065072;28;20025;-76
2023/10/15 11:50:44;;;;;;;3.38;0.82;;;;;;;;;;5064269;28;20032;-76
2023/10/15 11:53:17;;;;;;;1.58;0.90;;;;;;;;;;5060062;28;20391;-77
2023/10/15 11:55:43;;;;;;;;;;;;;;;;;;5059762;28;20051;-75
2023/10/15 11:58:10;;;;;;;1.13;0.70;;;;;;;;;;5060724;28;20010;-77
2023/10/15 12:00:39;;;;;;;1.08;0.70;;;;;;;;;;5062901;28;20386;-76
2023/10/15 12:03:06;;;;;;;0.65;0.65;;;;;;;;;;5060099;28;20111;-76
2023/10/15 12:05:35;;;;;;;0.90;0.57;;;;;;;;;;5058952;28;20060;-76
2023/10/15 12:08:05;;;;;;;2.97;0.77;;;;;;;;;;5061369;28;20094;-76
2023/10/15 12:10:32;;;;;;;2.03;0.75;;;;;;;;;;5064602;28;20033;-77
2023/10/15 12:13:02;;;;;;;2.80;1.05;;;;;;;;;;5064401;28;20032;-75
2023/10/15 12:15:30;;;;;;;1.58;0.75;;;;;;;;;;5059707;28;20103;-75
2023/10/15 12:17:56;;;;;;;4.45;1.10;;;;;;;;;;5055823;28;20418;-76
2023/10/15 12:20:24;;;;;;;4.25;1.20;;;;;;;;;;5054709;28;20088;-76
2023/10/15 12:22:51;;;;;;;2.72;1.00;;;;;;;;;;5053582;28;20032;-76
2023/10/15 12:25:17;;;;;;;3.33;1.00;;;;;;;;;;5052708;28;20025;-76
2023/10/15 12:27:43;;;;;;;1.83;1.00;;;;;;;;;;5058815;28;20057;-75
2023/10/15 12:30:27;;;;;;;2.25;1.17;;;;;;;;;;5054161;28;20131;-76
2023/10/15 12:32:53;;;;;;;3.25;0.93;;;;;;;;;;5054548;28;20025;-76
2023/10/15 12:35:20;;;;;;;3.85;1.40;;;;;;;;;;5054224;28;20518;-76
2023/10/15 12:37:47;;;;;;;2.95;1.20;;;;;;;;;;5054519;28;20078;-76
2023/10/15 12:40:13;;;;;;;1.58;1.00;;;;;;;;;;5054692;28;20017;-76
2023/10/15 12:42:40;;;;;;;3.63;1.48;;;;;;;;;;5053942;28;20487;-76
2023/10/15 12:45:10;;;;;;;4.40;1.80;;;;;;;;;;5051917;28;20048;-77
2023/10/15 12:47:36;;;;;;;1.48;0.88;;;;;;;;;;5054049;28;20431;-77
2023/10/15 12:50:04;;;;;;;2.15;1.05;;;;;;;;;;5053124;28;20475;-77
2023/10/15 12:52:31;;;;;;;8.93;1.75;;;;;;;;;;5053439;28;20036;-76
2023/10/15 12:54:59;;;;;;;3.20;1.67;;;;;;;;;;5054824;28;20025;-77
2023/10/15 12:57:25;;;;;;;4.22;1.10;;;;;;;;;;5057568;28;20391;-76
2023/10/15 12:59:51;;;;;;;3.20;1.30;;;;;;;;;;5056837;28;20029;-76
2023/10/15 13:02:20;;;;;;;4.18;1.55;;;;;;;;;;5056942;28;20371;-75
2023/10/15 13:04:48;;;;;;;6.68;1.95;;;;;;;;;;5056760;28;20134;-75
2023/10/15 13:07:16;;;;;;;2.75;1.40;;;;;;;;;;5058431;28;20021;-76
2023/10/15 13:09:44;;;;;;;5.25;1.45;;;;;;;;;;5057365;28;20045;-76
2023/10/15 13:12:10;;;;;;;2.75;1.13;;;;;;;;;;5057507;28;20063;-77
2023/10/15 13:14:36;;;;;;;2.70;1.13;;;;;;;;;;5056956;28;20483;-76
2023/10/15 13:17:03;;;;;;;5.38;1.23;;;;;;;;;;5057373;28;20063;-76
2023/10/15 13:19:29;;;;;;;5.10;1.38;;;;;;;;;;5060896;28;20079;-76
2023/10/15 13:21:55;;;;;;;3.72;1.15;;;;;;;;;;5061309;28;20112;-77
2023/10/15 13:24:21;;;;;;;2.20;0.65;;;;;;;;;;5058732;28;20029;-76
2023/10/15 13:26:47;;;;;;;2.78;1.80;;;;;;;;;;5056884;28;20032;-76
2023/10/15 13:29:14;;;;;;;2.58;0.60;;;;;;;;;;5057190;28;20090;-76
2023/10/15 13:31:41;;;;;;;4.30;1.13;;;;;;;;;;5056868;28;20053;-76
2023/10/15 13:34:09;;;;;;;0.80;0.77;;;;;;;;;;5055341;28;20037;-75
2023/10/15 13:36:35;;;;;;;2.05;0.75;;;;;;;;;;5056663;28;20032;-75
2023/10/15 13:39:01;;;;;;;0.88;0.40;;;;;;;;;;5056791;28;20029;-76
2023/10/15 13:41:28;;;;;;;0.43;0.38;;;;;;;;;;5056861;28;20053;-76
2023/10/15 13:43:54;;;;;;;0.40;0.40;;;;;;;;;;5057024;28;20418;-76
2023/10/15 13:46:20;;;;;;;0.90;0.50;;;;;;;;;;5057368;28;20025;-76
2023/10/15 13:48:46;;;;;;;0.60;0.60;;;;;;;;;;5058657;28;20090;-75
2023/10/15 13:51:13;;;;;;;2.30;0.57;;;;;;;;;;5060209;28;20025;-75
2023/10/15 13:53:39;;;;;;;6.22;2.78;;;;;;;;;;5058566;28;20035;-77
2023/10/15 13:56:05;;;;;;;0.73;0.70;;;;;;;;;;5057820;28;20029;-77
2023/10/15 13:58:31;;;;;;;1.95;0.95;;;;;;;;;;5055534;28;20025;-76
2023/10/15 14:00:59;;;;;;;2.58;0.80;;;;;;;;;;5059988;28;20017;-76
2023/10/15 14:03:25;;;;;;;1.10;0.60;;;;;;;;;;5064133;28;20104;-76
2023/10/15 14:05:52;;;;;;;1.92;0.70;;;;;;;;;;5057996;28;20020;-77
2023/10/15 14:08:19;;;;;;;2.00;0.47;;;;;;;;;;5056326;28;20028;-76
2023/10/15 14:10:50;;;;;;;0.68;0.60;;;;;;;;;;5058770;28;20044;-76
2023/10/15 14:13:17;;;;;;;1.33;0.70;;;;;;;;;;5056972;28;20111;-76
2023/10/15 14:15:43;;;;;;;2.70;0.70;;;;;;;;;;5054394;28;20051;-76
2023/10/15 14:18:09;;;;;;;0.90;0.75;;;;;;;;;;5055630;28;20463;-77
2023/10/15 14:20:37;;;;;;;1.95;1.10;;;;;;;;;;5056687;28;20025;-76
2023/10/15 14:23:03;;;;;;;2.00;0.98;;;;;;;;;;5056643;28;20081;-77
2023/10/15 14:25:29;;;;;;;2.45;1.00;;;;;;;;;;5055821;28;20024;-76
2023/10/15 14:27:56;;;;;;;1.25;0.95;;;;;;;;;;5055807;28;20027;-77
2023/10/15 14:30:22;;;;;;;1.98;0.80;;;;;;;;;;5055915;28;20064;-77
2023/10/15 14:32:48;;;;;;;2.00;0.90;;;;;;;;;;5055317;28;20059;-77
2023/10/15 14:35:14;;;;;;;1.08;0.80;;;;;;;;;;5055431;28;20033;-76
2023/10/15 14:37:40;;;;;;;2.58;1.27;;;;;;;;;;5055245;28;20372;-77
2023/10/15 14:40:07;;;;;;;5.07;1.45;;;;;;;;;;5055934;28;20024;-75
2023/10/15 14:42:39;;;;;;;2.55;1.20;;;;;;;;;;5055528;28;20027;-76
2023/10/15 14:45:06;;;;;;;1.50;1.13;;;;;;;;;;5055357;28;20017;-76
2023/10/15 14:47:32;;;;;;;1.77;0.80;;;;;;;;;;5054626;28;20125;-75
2023/10/15 14:49:59;;;;;;;2.22;0.90;;;;;;;;;;5058896;28;20368;-76
2023/10/15 14:52:25;;;;;;;2.28;1.00;;;;;;;;;;5055504;28;20063;-76
2023/10/15 14:54:51;;;;;;;2.58;1.15;;;;;;;;;;5055915;28;20036;-76
2023/10/15 14:57:17;;;;;;;2.85;1.13;;;;;;;;;;5058469;28;20051;-77
2023/10/15 14:59:44;;;;;;;2.85;0.95;;;;;;;;;;5056224;28;20025;-76
2023/10/15 15:02:10;;;;;;;2.60;1.10;;;;;;;;;;5055127;28;20491;-77
2023/10/15 15:04:37;;;;;;;2.20;1.13;;;;;;;;;;5056480;28;20058;-76
2023/10/15 15:07:03;;;;;;;1.55;0.90;;;;;;;;;;5056804;28;20122;-76